Time;durP1;ratioP1;P1;durP2;ratioP2;P2;SDS_P1;SDS_P2;PMS_P1;PMS_P2;Temp;Humidity;BMP_temperature;BMP_pressure;BME280_temperature;BME280_humidity;BME280_pressure;Samples;Min_cycle;Max_cycle;Signal;HPM_P1;HPM_P2
2023/06/11 00:01:16;;;;;;;5.03;2.97;;;;;;;;;;5035522;28;20033;-69
2023/06/11 00:03:42;;;;;;;5.43;2.78;;;18.20;84.50;;;;;;5037813;28;20127;-69
2023/06/11 00:06:10;;;;;;;6.25;2.78;;;18.20;84.60;;;;;;5036511;28;20388;-69
2023/06/11 00:08:36;;;;;;;4.43;3.03;;;18.20;72.00;;;;;;5038733;28;20480;-69
2023/06/11 00:11:02;;;;;;;5.18;2.80;;;18.20;69.40;;;;;;5038030;28;20124;-69
2023/06/11 00:13:28;;;;;;;6.60;3.22;;;18.30;67.80;;;;;;5037084;28;20171;-69
2023/06/11 00:15:54;;;;;;;5.18;3.30;;;18.20;64.10;;;;;;5037260;28;20034;-68
2023/06/11 00:18:20;;;;;;;4.78;3.00;;;18.20;55.70;;;;;;5037313;28;20033;-68
2023/06/11 00:20:47;;;;;;;5.18;3.17;;;18.50;52.80;;;;;;5038627;28;20102;-69
2023/06/11 00:23:13;;;;;;;6.28;3.40;;;18.20;56.00;;;;;;5042467;28;20052;-68
2023/06/11 00:25:39;;;;;;;8.23;3.63;;;18.20;48.30;;;;;;5045742;28;20041;-68
2023/06/11 00:28:06;;;;;;;3.72;2.83;;;18.20;47.70;;;;;;5044598;28;20045;-69
2023/06/11 00:30:31;;;;;;;4.20;3.38;;;18.20;48.30;;;;;;5024489;28;20049;-71
2023/06/11 00:32:57;;;;;;;5.75;3.63;;;18.40;47.00;;;;;;5041218;28;20507;-70
2023/06/11 00:35:23;;;;;;;5.80;3.50;;;18.30;41.00;;;;;;5022844;28;20120;-69
2023/06/11 00:37:49;;;;;;;6.25;3.72;;;18.30;38.80;;;;;;5041007;28;20091;-69
2023/06/11 00:40:15;;;;;;;4.25;3.17;;;18.30;33.00;;;;;;5039969;28;20037;-67
2023/06/11 00:42:41;;;;;;;8.75;3.88;;;18.40;28.70;;;;;;5040785;28;20044;-68
2023/06/11 00:45:08;;;;;;;6.18;3.25;;;18.40;26.40;;;;;;5040750;28;20073;-66
2023/06/11 00:47:36;;;;;;;4.97;3.25;;;18.40;23.90;;;;;;5043470;28;20045;-68
2023/06/11 00:50:04;;;;;;;5.07;3.13;;;18.40;22.50;;;;;;5040426;28;20046;-69
2023/06/11 00:52:30;;;;;;;4.05;2.92;;;18.40;20.90;;;;;;5041272;28;20400;-68
2023/06/11 00:54:56;;;;;;;3.92;2.72;;;18.40;19.10;;;;;;5043022;28;20140;-69
2023/06/11 00:57:25;;;;;;;4.10;3.00;;;18.40;18.00;;;;;;5039959;28;20076;-68
2023/06/11 00:59:55;;;;;;;5.10;3.92;;;18.40;16.60;;;;;;5040064;28;20054;-68
2023/06/11 01:02:39;;;;;;;5.90;3.40;;;18.40;15.30;;;;;;5042719;28;20057;-68
2023/06/11 01:05:07;;;;;;;4.40;3.30;;;18.40;16.00;;;;;;5040692;28;20052;-69
2023/06/11 01:07:41;;;;;;;4.72;3.10;;;18.40;15.80;;;;;;5022490;28;20401;-68
2023/06/11 01:10:07;;;;;;;4.70;3.25;;;18.40;25.20;;;;;;5042230;28;20040;-69
2023/06/11 01:12:33;;;;;;;3.65;2.90;;;18.30;13.40;;;;;;5039699;28;20041;-69
2023/06/11 01:14:58;;;;;;;7.72;3.40;;;18.30;12.20;;;;;;5021513;28;20458;-69
2023/06/11 01:17:35;;;;;;;5.50;3.20;;;18.30;11.30;;;;;;5038752;28;20503;-70
2023/06/11 01:20:34;;;;;;;12.23;3.50;;;18.20;10.80;;;;;;5039300;28;20082;-71
2023/06/11 01:23:55;;;;;;;5.88;3.63;;;18.30;10.30;;;;;;5038583;28;20083;-70
2023/06/11 01:26:36;;;;;;;;;;;18.20;10.30;;;;;;4975256;28;20053;-68
2023/06/11 01:29:04;;;;;;;8.45;3.53;;;18.20;12.20;;;;;;5029343;28;20293;-69
2023/06/11 01:31:32;;;;;;;5.22;3.20;;;18.10;10.00;;;;;;5035375;28;20397;-68
2023/06/11 01:33:58;;;;;;;5.72;3.08;;;18.10;9.00;;;;;;5035691;28;20139;-69
2023/06/11 01:36:29;;;;;;;4.55;3.35;;;18.00;9.50;;;;;;5017417;28;20073;-69
2023/06/11 01:38:58;;;;;;;4.85;3.88;;;18.20;9.20;;;;;;5035258;28;20120;-68
2023/06/11 01:41:25;;;;;;;7.90;4.00;;;17.90;8.90;;;;;;5035038;28;20432;-68
2023/06/11 01:43:51;;;;;;;4.43;3.40;;;17.90;8.60;;;;;;5035548;28;20099;-70
2023/06/11 01:46:16;;;;;;;5.88;4.10;;;17.90;8.50;;;;;;5035229;28;20045;-68
2023/06/11 01:48:42;;;;;;;6.82;4.00;;;17.80;9.00;;;;;;5034797;28;20037;-69
2023/06/11 01:51:08;;;;;;;6.00;3.88;;;17.80;9.80;;;;;;5034707;28;20473;-69
2023/06/11 01:53:33;;;;;;;4.88;3.53;;;17.70;11.20;;;;;;5016555;28;20042;-70
2023/06/11 01:56:00;;;;;;;5.32;3.88;;;18.10;10.80;;;;;;5034504;28;20083;-69
2023/06/11 01:58:26;;;;;;;5.15;3.63;;;17.60;10.60;;;;;;5016567;28;20041;-68
2023/06/11 02:00:53;;;;;;;6.90;3.60;;;17.20;10.60;;;;;;5034507;28;20041;-68
2023/06/11 02:03:19;;;;;;;5.57;3.65;;;17.50;10.00;;;;;;5034143;28;20057;-68
2023/06/11 02:05:44;;;;;;;4.82;3.58;;;17.50;10.80;;;;;;5034236;28;20046;-69
2023/06/11 02:08:10;;;;;;;5.80;3.70;;;18.00;10.40;;;;;;5034394;28;20052;-68
2023/06/11 02:10:36;;;;;;;6.30;3.88;;;17.40;9.70;;;;;;5034117;28;20033;-69
2023/06/11 02:13:02;;;;;;;7.65;3.40;;;17.40;10.70;;;;;;5034097;28;20042;-69
2023/06/11 02:15:27;;;;;;;4.78;3.55;;;17.40;10.90;;;;;;5033876;28;20389;-69
2023/06/11 02:17:53;;;;;;;4.35;3.53;;;17.40;11.20;;;;;;5033757;28;20029;-68
2023/06/11 02:20:18;;;;;;;6.85;4.00;;;17.30;11.10;;;;;;5016404;28;20034;-69
2023/06/11 02:22:44;;;;;;;6.00;3.90;;;17.30;11.30;;;;;;5034046;28;20084;-69
2023/06/11 02:25:10;;;;;;;5.18;3.50;;;17.30;11.20;;;;;;5033928;28;20501;-67
2023/06/11 02:27:35;;;;;;;4.93;3.70;;;17.30;11.20;;;;;;5033988;28;20064;-71
2023/06/11 02:30:01;;;;;;;8.60;4.03;;;17.30;13.10;;;;;;4999645;28;20493;-69
2023/06/11 02:32:28;;;;;;;4.80;3.85;;;17.20;13.50;;;;;;5033603;28;20132;-68
2023/06/11 02:34:53;;;;;;;5.50;3.97;;;16.90;13.30;;;;;;5033714;28;20096;-69
2023/06/11 02:37:19;;;;;;;7.75;4.05;;;17.20;13.30;;;;;;4999242;28;20041;-68
2023/06/11 02:39:45;;;;;;;6.72;4.72;;;17.00;14.00;;;;;;5033571;28;20444;-68
2023/06/11 02:42:11;;;;;;;6.30;4.28;;;17.10;13.60;;;;;;5032996;28;20041;-68
2023/06/11 02:44:36;;;;;;;5.93;4.90;;;17.10;13.30;;;;;;5032858;28;20038;-69
2023/06/11 02:47:02;;;;;;;6.97;4.57;;;17.10;13.20;;;;;;5033525;28;20056;-68
2023/06/11 02:49:27;;;;;;;7.10;4.55;;;17.10;13.90;;;;;;5033419;28;20065;-69
2023/06/11 02:51:53;;;;;;;7.07;4.05;;;17.40;14.50;;;;;;5033376;28;20052;-69
2023/06/11 02:54:19;;;;;;;7.88;4.68;;;17.00;14.80;;;;;;5033347;28;20037;-69
2023/06/11 02:56:44;;;;;;;6.75;4.57;;;17.50;16.10;;;;;;5015252;28;20106;-69
2023/06/11 02:59:10;;;;;;;8.52;4.78;;;16.90;16.40;;;;;;4999003;28;20033;-68
2023/06/11 03:01:35;;;;;;;8.27;4.45;;;17.00;25.00;;;;;;5033204;28;20395;-69
2023/06/11 03:04:01;;;;;;;8.88;4.53;;;16.90;99.90;;;;;;5032804;28;20125;-68
2023/06/11 03:06:27;;;;;;;7.40;5.00;;;;;;;;;;5032853;28;20096;-69
2023/06/11 03:08:53;;;;;;;7.15;4.40;;;;;;;;;;5033150;28;20405;-70
2023/06/11 03:11:19;;;;;;;6.90;4.15;;;17.00;6.40;;;;;;5033146;28;20045;-72
2023/06/11 03:13:44;;;;;;;7.03;4.43;;;16.90;14.80;;;;;;5032867;28;20457;-70
2023/06/11 03:16:10;;;;;;;8.05;4.38;;;16.90;17.40;;;;;;5032824;28;20052;-70
2023/06/11 03:18:36;;;;;;;8.43;4.85;;;16.80;18.00;;;;;;5032998;28;20045;-70
2023/06/11 03:21:02;;;;;;;6.53;4.65;;;16.80;19.80;;;;;;5032987;28;20432;-70
2023/06/11 03:23:27;;;;;;;6.57;4.68;;;16.70;19.10;;;;;;5032994;28;20111;-70
2023/06/11 03:25:53;;;;;;;8.05;4.97;;;16.70;21.10;;;;;;5032993;28;20037;-68
2023/06/11 03:28:18;;;;;;;11.15;5.32;;;16.60;22.80;;;;;;5032947;28;20045;-69
2023/06/11 03:30:44;;;;;;;6.45;4.68;;;16.60;25.70;;;;;;5015142;28;20417;-70
2023/06/11 03:33:10;;;;;;;8.02;4.80;;;16.60;25.40;;;;;;5014851;28;20164;-70
2023/06/11 03:35:35;;;;;;;5.20;4.07;;;17.50;27.60;;;;;;5032868;28;20038;-71
2023/06/11 03:38:01;;;;;;;7.85;4.68;;;16.40;28.70;;;;;;5014953;28;20069;-68
2023/06/11 03:40:26;;;;;;;7.40;4.28;;;16.50;31.20;;;;;;5032475;28;20037;-69
2023/06/11 03:42:52;;;;;;;5.30;3.97;;;16.40;33.50;;;;;;5032801;28;20116;-70
2023/06/11 03:45:18;;;;;;;8.18;4.35;;;16.40;38.50;;;;;;5032701;28;20042;-69
2023/06/11 03:47:43;;;;;;;6.95;4.45;;;16.40;40.10;;;;;;5032819;28;20397;-70
2023/06/11 03:50:09;;;;;;;6.35;4.68;;;16.40;40.20;;;;;;5014787;28;20045;-70
2023/06/11 03:52:36;;;;;;;6.63;4.35;;;16.30;43.20;;;;;;5032550;28;20042;-70
2023/06/11 03:55:01;;;;;;;7.60;4.55;;;16.40;46.30;;;;;;5034957;28;20073;-68
2023/06/11 03:57:27;;;;;;;5.97;4.30;;;16.40;46.50;;;;;;5036301;28;20091;-70
2023/06/11 03:59:53;;;;;;;7.13;4.93;;;16.40;53.20;;;;;;5036321;28;20065;-69
2023/06/11 04:02:19;;;;;;;5.75;4.38;;;16.80;55.60;;;;;;5036290;28;20116;-69
2023/06/11 04:04:45;;;;;;;5.57;4.55;;;16.50;60.20;;;;;;5036193;28;20099;-69
2023/06/11 04:07:11;;;;;;;7.63;4.78;;;16.50;62.70;;;;;;5018335;28;20059;-69
2023/06/11 04:09:37;;;;;;;7.22;4.82;;;16.40;60.70;;;;;;5036311;28;20116;-69
2023/06/11 04:12:02;;;;;;;8.18;4.97;;;16.60;60.30;;;;;;5036193;28;20041;-69
2023/06/11 04:14:28;;;;;;;6.82;4.68;;;16.60;69.40;;;;;;5036165;28;20040;-68
2023/06/11 04:16:54;;;;;;;8.00;5.25;;;16.60;62.50;;;;;;5036212;28;20064;-70
2023/06/11 04:19:19;;;;;;;6.15;5.18;;;16.70;67.30;;;;;;5036114;28;20048;-69
2023/06/11 04:21:45;;;;;;;6.32;4.63;;;17.70;65.60;;;;;;5035812;28;20037;-69
2023/06/11 04:24:10;;;;;;;7.70;4.70;;;16.80;65.20;;;;;;5036064;28;20146;-69
2023/06/11 04:26:36;;;;;;;8.27;5.00;;;16.80;64.70;;;;;;5035989;28;20242;-70
2023/06/11 04:29:03;;;;;;;9.57;5.15;;;17.60;70.20;;;;;;5035919;28;20508;-70
2023/06/11 04:31:29;;;;;;;4.93;4.25;;;16.90;69.70;;;;;;5035882;28;20029;-69
2023/06/11 04:34:02;;;;;;;8.35;4.80;;;17.30;72.00;;;;;;5035547;28;20139;-69
2023/06/11 04:36:29;;;;;;;6.05;4.32;;;17.00;73.60;;;;;;5035765;28;20035;-69
2023/06/11 04:38:55;;;;;;;7.97;5.65;;;17.10;70.60;;;;;;5017772;28;20041;-70
2023/06/11 04:41:23;;;;;;;7.10;4.65;;;17.10;72.70;;;;;;5034551;28;20542;-70
2023/06/11 04:43:49;;;;;;;6.20;4.63;;;17.20;75.90;;;;;;5035621;28;20041;-70
2023/06/11 04:46:14;;;;;;;5.03;4.53;;;17.20;75.30;;;;;;5017624;28;20567;-69
2023/06/11 04:48:41;;;;;;;7.00;4.80;;;18.20;79.80;;;;;;5035667;28;20476;-68
2023/06/11 04:51:07;;;;;;;6.20;4.82;;;17.40;80.80;;;;;;5017945;28;20077;-69
2023/06/11 04:53:36;;;;;;;7.50;5.43;;;17.60;83.30;;;;;;5017489;28;20440;-69
2023/06/11 04:56:02;;;;;;;7.60;4.88;;;17.50;85.80;;;;;;5035453;28;20121;-68
2023/06/11 04:58:29;;;;;;;5.40;4.50;;;17.60;85.40;;;;;;5035379;28;20530;-69
2023/06/11 05:00:56;;;;;;;10.95;5.63;;;18.40;87.80;;;;;;5035410;28;20033;-69
2023/06/11 05:03:32;;;;;;;5.70;4.32;;;17.80;92.30;;;;;;5035024;28;20128;-68
2023/06/11 05:05:58;;;;;;;5.55;4.03;;;17.90;86.70;;;;;;5034586;28;20084;-69
2023/06/11 05:08:25;;;;;;;9.50;4.80;;;18.00;86.40;;;;;;5035195;28;20045;-69
2023/06/11 05:10:53;;;;;;;9.75;4.75;;;18.10;83.70;;;;;;5035222;28;20045;-69
2023/06/11 05:13:24;;;;;;;7.32;4.85;;;18.20;88.80;;;;;;5034998;28;20125;-70
2023/06/11 05:15:57;;;;;;;6.32;5.07;;;18.30;87.20;;;;;;5035125;28;20546;-70
2023/06/11 05:18:25;;;;;;;7.13;4.38;;;18.40;85.70;;;;;;5035094;28;20047;-70
2023/06/11 05:20:51;;;;;;;7.93;4.55;;;18.50;85.60;;;;;;5034758;28;20061;-70
2023/06/11 05:23:17;;;;;;;7.57;4.78;;;18.60;84.20;;;;;;5034941;28;20056;-70
2023/06/11 05:25:46;;;;;;;8.35;4.72;;;18.70;79.00;;;;;;5017353;28;20405;-69
2023/06/11 05:28:16;;;;;;;6.03;4.43;;;18.80;77.60;;;;;;5034871;28;20052;-70
2023/06/11 05:30:45;;;;;;;7.40;4.45;;;18.90;74.40;;;;;;5034840;28;20123;-70
2023/06/11 05:33:11;;;;;;;7.85;4.65;;;19.00;74.40;;;;;;5034684;28;20049;-70
2023/06/11 05:35:38;;;;;;;8.75;5.05;;;19.50;78.50;;;;;;5016862;28;20048;-70
2023/06/11 05:38:06;;;;;;;6.07;4.63;;;19.20;69.90;;;;;;5034672;28;20121;-72
2023/06/11 05:40:33;;;;;;;7.70;5.03;;;19.30;69.90;;;;;;5034672;28;20444;-69
2023/06/11 05:42:59;;;;;;;6.60;4.88;;;19.40;66.20;;;;;;5034591;28;20045;-70
2023/06/11 05:45:25;;;;;;;6.57;4.90;;;19.60;65.10;;;;;;5034524;28;20116;-68
2023/06/11 05:47:51;;;;;;;6.15;4.30;;;19.60;63.20;;;;;;5034815;28;20469;-69
2023/06/11 05:50:17;;;;;;;8.68;4.43;;;19.70;64.30;;;;;;5035000;28;20497;-68
2023/06/11 05:52:43;;;;;;;7.15;5.15;;;19.80;62.60;;;;;;5034444;28;20044;-69
2023/06/11 05:55:08;;;;;;;6.28;4.40;;;19.80;59.30;;;;;;5034576;28;20057;-69
2023/06/11 05:57:34;;;;;;;6.35;4.85;;;19.90;59.10;;;;;;5034177;28;20481;-69
2023/06/11 06:00:00;;;;;;;6.32;4.35;;;20.00;60.30;;;;;;5034479;28;20176;-69
2023/06/11 06:02:26;;;;;;;12.40;5.50;;;20.10;58.50;;;;;;5033667;28;20073;-69
2023/06/11 06:04:51;;;;;;;6.13;4.75;;;20.30;57.00;;;;;;5034368;28;20044;-69
2023/06/11 06:07:18;;;;;;;9.43;5.10;;;20.40;54.10;;;;;;5034340;28;20045;-70
2023/06/11 06:09:43;;;;;;;6.20;4.47;;;20.40;54.20;;;;;;5034483;28;20043;-69
2023/06/11 06:12:10;;;;;;;5.72;4.15;;;20.50;55.00;;;;;;5018801;28;20141;-70
2023/06/11 06:14:36;;;;;;;6.53;4.90;;;20.60;54.20;;;;;;5034000;28;20037;-70
2023/06/11 06:17:02;;;;;;;6.45;4.72;;;20.70;53.10;;;;;;5033625;28;20048;-70
2023/06/11 06:19:27;;;;;;;8.85;5.00;;;20.80;52.70;;;;;;5033351;28;20472;-68
2023/06/11 06:21:53;;;;;;;7.57;4.50;;;20.90;45.90;;;;;;5033675;28;20050;-70
2023/06/11 06:24:18;;;;;;;7.40;4.47;;;20.90;49.60;;;;;;5033805;28;20064;-70
2023/06/11 06:26:44;;;;;;;6.68;4.22;;;21.10;46.50;;;;;;5033474;28;20067;-69
2023/06/11 06:29:12;;;;;;;7.38;4.95;;;21.10;47.70;;;;;;5033677;28;20041;-71
2023/06/11 06:31:41;;;;;;;6.43;4.82;;;21.20;48.50;;;;;;5015648;28;20048;-71
2023/06/11 06:34:07;;;;;;;6.22;4.60;;;21.30;49.30;;;;;;5033644;28;20137;-71
2023/06/11 06:36:34;;;;;;;6.88;4.60;;;21.30;44.80;;;;;;5033587;28;20040;-71
2023/06/11 06:39:01;;;;;;;10.05;5.13;;;21.40;44.80;;;;;;5033503;28;20033;-70
2023/06/11 06:41:27;;;;;;;10.95;5.47;;;21.60;41.90;;;;;;5033119;28;20046;-70
2023/06/11 06:43:53;;;;;;;11.18;4.78;;;21.70;44.00;;;;;;5033479;28;20048;-72
2023/06/11 06:46:18;;;;;;;6.78;4.53;;;22.20;44.40;;;;;;5033410;28;20078;-71
2023/06/11 06:48:44;;;;;;;6.63;4.65;;;22.20;46.20;;;;;;5033448;28;20525;-70
2023/06/11 06:51:10;;;;;;;7.63;4.35;;;22.10;42.30;;;;;;5033342;28;20076;-71
2023/06/11 06:53:35;;;;;;;7.95;4.85;;;22.30;39.10;;;;;;5032954;28;20060;-70
2023/06/11 06:56:02;;;;;;;6.80;4.90;;;22.20;37.30;;;;;;5033324;28;20037;-69
2023/06/11 06:58:28;;;;;;;9.30;4.88;;;22.30;41.80;;;;;;5015608;28;20148;-71
2023/06/11 07:00:54;;;;;;;6.13;4.30;;;22.30;38.30;;;;;;5033182;28;20041;-70
2023/06/11 07:03:21;;;;;;;7.78;4.63;;;22.70;40.20;;;;;;5032818;28;20050;-71
2023/06/11 07:05:46;;;;;;;8.30;4.80;;;22.60;39.60;;;;;;5033130;28;20089;-70
2023/06/11 07:08:13;;;;;;;6.72;4.45;;;22.60;37.40;;;;;;5033105;28;20472;-70
2023/06/11 07:10:47;;;;;;;6.00;4.63;;;22.90;37.90;;;;;;5033080;28;20124;-71
2023/06/11 07:13:13;;;;;;;6.47;4.38;;;23.00;36.60;;;;;;5032655;28;20091;-70
2023/06/11 07:15:39;;;;;;;7.03;4.60;;;23.10;38.70;;;;;;5032725;28;20045;-70
2023/06/11 07:18:05;;;;;;;7.05;4.53;;;23.10;36.20;;;;;;5032671;28;20051;-73
2023/06/11 07:20:30;;;;;;;6.15;4.57;;;23.20;31.60;;;;;;5033035;28;20037;-71
2023/06/11 07:22:59;;;;;;;5.68;4.43;;;23.30;30.10;;;;;;5014882;28;20053;-71
2023/06/11 07:25:28;;;;;;;7.25;4.57;;;23.30;29.70;;;;;;5015159;28;20128;-70
2023/06/11 07:27:54;;;;;;;6.88;5.30;;;23.40;28.90;;;;;;5032930;28;20131;-69
2023/06/11 07:30:20;;;;;;;5.35;4.40;;;23.50;43.30;;;;;;5035882;28;20090;-70
2023/06/11 07:32:45;;;;;;;6.50;4.13;;;23.60;28.30;;;;;;5018947;28;20041;-69
2023/06/11 07:35:11;;;;;;;8.70;4.95;;;23.70;30.00;;;;;;5036765;28;20095;-71
2023/06/11 07:37:37;;;;;;;6.43;4.43;;;24.00;30.00;;;;;;5036812;28;20113;-69
2023/06/11 07:40:04;;;;;;;5.90;3.97;;;24.10;29.00;;;;;;5036392;28;20049;-71
2023/06/11 07:42:30;;;;;;;5.15;3.85;;;24.10;27.50;;;;;;5036681;28;20037;-73
2023/06/11 07:44:55;;;;;;;6.13;4.47;;;24.10;27.60;;;;;;5036707;28;20103;-72
2023/06/11 07:47:21;;;;;;;6.13;4.10;;;24.10;26.40;;;;;;5018734;28;20037;-73
2023/06/11 07:49:46;;;;;;;5.70;4.03;;;24.40;25.10;;;;;;5036667;28;20558;-75
2023/06/11 07:52:12;;;;;;;7.97;4.72;;;24.20;25.10;;;;;;5036701;28;20048;-73
2023/06/11 07:54:38;;;;;;;7.80;4.88;;;24.40;22.60;;;;;;5018939;28;20468;-75
2023/06/11 07:57:06;;;;;;;8.60;3.78;;;24.50;23.70;;;;;;5018724;28;20048;-76
2023/06/11 07:59:31;;;;;;;5.72;4.20;;;24.50;24.10;;;;;;5036526;28;20041;-75
2023/06/11 08:01:57;;;;;;;5.18;4.18;;;24.50;23.70;;;;;;5018447;28;20518;-73
2023/06/11 08:04:24;;;;;;;9.45;4.43;;;24.60;24.30;;;;;;5018348;28;20144;-75
2023/06/11 08:06:49;;;;;;;6.22;4.20;;;24.60;23.50;;;;;;5036399;28;20042;-75
2023/06/11 08:09:15;;;;;;;6.95;4.45;;;24.80;23.70;;;;;;5036409;28;20392;-74
2023/06/11 08:11:41;;;;;;;6.10;3.83;;;24.90;21.30;;;;;;5036233;28;20033;-74
2023/06/11 08:14:07;;;;;;;6.80;4.05;;;25.00;23.50;;;;;;5036217;28;20045;-76
2023/06/11 08:16:33;;;;;;;6.63;4.22;;;25.10;22.90;;;;;;5036065;28;20120;-75
2023/06/11 08:18:58;;;;;;;6.68;4.10;;;25.10;23.60;;;;;;5035729;28;20123;-73
2023/06/11 08:21:24;;;;;;;7.90;4.53;;;25.10;22.00;;;;;;5018226;28;20041;-71
2023/06/11 08:23:51;;;;;;;6.00;3.95;;;25.00;20.30;;;;;;5018120;28;20053;-76
2023/06/11 08:26:17;;;;;;;7.20;4.18;;;25.30;22.60;;;;;;5036239;28;20125;-76
2023/06/11 08:28:43;;;;;;;5.47;3.90;;;25.30;22.80;;;;;;5018389;28;20143;-75
2023/06/11 08:31:09;;;;;;;6.65;4.38;;;25.40;23.40;;;;;;5018392;28;20508;-73
2023/06/11 08:33:35;;;;;;;7.47;4.30;;;25.30;23.00;;;;;;5017976;28;20077;-73
2023/06/11 08:36:00;;;;;;;5.93;4.07;;;25.60;23.10;;;;;;5035955;28;20509;-74
2023/06/11 08:38:28;;;;;;;6.93;4.40;;;25.70;23.10;;;;;;5035911;28;20045;-75
2023/06/11 08:40:53;;;;;;;5.00;3.92;;;25.80;23.40;;;;;;5034645;28;20441;-73
2023/06/11 08:43:19;;;;;;;5.95;4.10;;;25.90;23.90;;;;;;5035884;28;20069;-74
2023/06/11 08:45:45;;;;;;;6.13;4.20;;;25.90;22.40;;;;;;5036064;28;20037;-73
2023/06/11 08:48:13;;;;;;;6.70;4.13;;;26.00;22.20;;;;;;5035454;28;20095;-74
2023/06/11 08:50:39;;;;;;;6.25;3.78;;;26.10;23.30;;;;;;5035660;28;20033;-73
2023/06/11 08:53:06;;;;;;;5.68;3.72;;;26.20;24.30;;;;;;5035494;28;20100;-74
2023/06/11 08:55:32;;;;;;;5.75;4.43;;;26.30;32.50;;;;;;5017558;28;20061;-73
2023/06/11 08:57:57;;;;;;;8.75;4.13;;;26.30;22.20;;;;;;5035202;28;20481;-74
2023/06/11 09:00:23;;;;;;;5.75;3.92;;;26.60;24.20;;;;;;5035446;28;20041;-74
2023/06/11 09:02:49;;;;;;;5.40;4.18;;;26.50;25.30;;;;;;5035252;28;20045;-74
2023/06/11 09:05:15;;;;;;;4.97;3.50;;;26.60;24.30;;;;;;5035372;28;20396;-74
2023/06/11 09:07:51;;;;;;;4.55;3.90;;;26.50;24.60;;;;;;5035100;28;20116;-74
2023/06/11 09:10:18;;;;;;;5.18;3.58;;;26.70;25.10;;;;;;5017480;28;20119;-73
2023/06/11 09:12:44;;;;;;;6.13;3.88;;;26.90;29.10;;;;;;5033690;28;20046;-73
2023/06/11 09:15:11;;;;;;;5.50;3.55;;;26.90;26.60;;;;;;5035073;28;20087;-73
2023/06/11 09:17:38;;;;;;;9.30;4.10;;;26.70;26.10;;;;;;5035430;28;20049;-74
2023/06/11 09:20:06;;;;;;;4.97;3.90;;;26.60;23.90;;;;;;5034947;28;20038;-73
2023/06/11 09:22:32;;;;;;;5.10;3.83;;;26.70;24.30;;;;;;5035130;28;20116;-73
2023/06/11 09:25:02;;;;;;;6.97;4.13;;;26.70;24.20;;;;;;5035093;28;20450;-74
2023/06/11 09:27:28;;;;;;;;;;;26.90;23.20;;;;;;5035357;28;20095;-73
2023/06/11 09:29:53;;;;;;;5.40;3.55;;;27.00;22.90;;;;;;5034565;28;19917;-74
2023/06/11 09:32:19;;;;;;;5.53;3.88;;;26.90;24.00;;;;;;5034809;28;20041;-72
2023/06/11 09:34:45;;;;;;;5.65;3.75;;;27.00;23.00;;;;;;5034936;28;20069;-73
2023/06/11 09:37:11;;;;;;;5.05;3.55;;;27.10;24.30;;;;;;5034517;28;20041;-72
2023/06/11 09:39:39;;;;;;;7.13;3.80;;;27.30;25.40;;;;;;5034765;28;20041;-71
2023/06/11 09:42:05;;;;;;;4.63;3.38;;;27.30;24.60;;;;;;5034420;28;20103;-71
2023/06/11 09:44:34;;;;;;;5.28;3.83;;;27.50;99.90;;;;;;5034692;28;20038;-71
2023/06/11 09:47:00;;;;;;;4.47;3.30;;;27.50;3.30;;;;;;5034547;28;20452;-71
2023/06/11 09:49:27;;;;;;;6.82;4.50;;;27.70;18.70;;;;;;5034556;28;20420;-71
2023/06/11 09:51:56;;;;;;;4.95;3.47;;;27.50;38.20;;;;;;5034230;28;20038;-71
2023/06/11 09:54:22;;;;;;;5.43;4.07;;;27.90;32.70;;;;;;5034689;28;20452;-71
2023/06/11 09:56:48;;;;;;;5.35;4.20;;;27.50;12.20;;;;;;5034088;28;20271;-71
2023/06/11 09:59:16;;;;;;;5.13;3.83;;;27.90;19.20;;;;;;5034339;28;20033;-71
2023/06/11 10:01:47;;;;;;;5.13;3.40;;;27.60;75.30;;;;;;5034217;28;20041;-71
2023/06/11 10:04:12;;;;;;;;;;;27.60;99.90;;;;;;5016551;28;20092;-71
2023/06/11 10:06:48;;;;;;;4.55;3.97;;;;;;;;;;5034312;28;19963;-71
2023/06/11 10:09:15;;;;;;;4.13;3.17;;;;;;;;;;5034044;28;20425;-72
2023/06/11 10:11:41;;;;;;;5.25;3.65;;;27.80;99.90;;;;;;5033926;28;20121;-71
2023/06/11 10:14:12;;;;;;;4.03;2.95;;;28.30;99.90;;;;;;5015994;28;20041;-72
2023/06/11 10:16:38;;;;;;;4.72;3.33;;;;;;;;;;5034030;28;20045;-71
2023/06/11 10:19:06;;;;;;;5.25;3.50;;;;;;;;;;5034078;28;20044;-71
2023/06/11 10:21:49;;;;;;;4.10;3.20;;;28.00;99.90;;;;;;5016156;28;20102;-71
2023/06/11 10:24:27;;;;;;;3.80;2.92;;;;;;;;;;5033895;28;20124;-72
2023/06/11 10:27:11;;;;;;;4.10;3.20;;;28.20;14.80;;;;;;5015953;28;20464;-72
2023/06/11 10:29:38;;;;;;;5.32;3.53;;;28.10;22.40;;;;;;5015811;28;20469;-72
2023/06/11 10:32:14;;;;;;;5.72;3.78;;;28.10;22.20;;;;;;5015652;28;20448;-72
2023/06/11 10:34:40;;;;;;;4.05;3.03;;;28.00;21.90;;;;;;5033704;28;20141;-73
2023/06/11 10:37:07;;;;;;;5.88;3.90;;;28.00;20.00;;;;;;5034097;28;20045;-73
2023/06/11 10:39:32;;;;;;;5.13;3.13;;;28.00;19.00;;;;;;5039304;28;20096;-70
2023/06/11 10:42:00;;;;;;;5.80;3.40;;;28.00;19.80;;;;;;5039855;28;20064;-73
2023/06/11 10:44:26;;;;;;;5.18;3.17;;;28.00;18.70;;;;;;5041495;28;20037;-71
2023/06/11 10:46:53;;;;;;;4.30;2.83;;;28.00;18.40;;;;;;5006141;28;20068;-73
2023/06/11 10:49:23;;;;;;;5.28;3.33;;;28.00;18.30;;;;;;5005661;28;20049;-72
2023/06/11 10:51:50;;;;;;;6.53;3.50;;;28.20;17.50;;;;;;5039585;28;20037;-71
2023/06/11 10:54:32;;;;;;;4.25;2.90;;;28.10;18.30;;;;;;5021578;28;20045;-73
2023/06/11 10:57:00;;;;;;;4.95;3.40;;;28.10;17.70;;;;;;5040464;28;20052;-72
2023/06/11 10:59:27;;;;;;;9.80;3.60;;;28.20;16.90;;;;;;5041507;28;20048;-71
2023/06/11 11:01:53;;;;;;;4.43;3.22;;;28.10;16.10;;;;;;5041395;28;20448;-74
2023/06/11 11:04:21;;;;;;;4.82;3.28;;;28.20;16.60;;;;;;5038408;28;20046;-74
2023/06/11 12:05:43;;;;;;;4.22;2.88;;;28.30;99.90;;;;;;5130952;27;20475;-64
2023/06/11 12:08:09;;;;;;;5.63;3.38;;;28.90;99.90;;;;;;5131549;28;20069;-65
2023/06/11 12:10:34;;;;;;;6.90;3.20;;;28.80;99.90;;;;;;5131493;28;20114;-65
2023/06/11 12:13:01;;;;;;;4.00;2.95;;;28.80;99.90;;;;;;5131388;28;20035;-64
2023/06/11 12:15:27;;;;;;;6.32;3.28;;;28.90;94.40;;;;;;5131284;27;20077;-65
2023/06/11 12:17:53;;;;;;;6.78;3.65;;;29.00;20.60;;;;;;5130012;28;20084;-66
2023/06/11 12:20:22;;;;;;;4.15;2.78;;;29.10;10.60;;;;;;5131019;27;20039;-66
2023/06/11 12:22:49;;;;;;;3.70;3.20;;;29.20;11.00;;;;;;5130931;27;20040;-66
2023/06/11 12:25:15;;;;;;;5.70;3.40;;;29.20;9.50;;;;;;5131147;27;20043;-66
2023/06/11 12:27:41;;;;;;;4.75;3.45;;;29.30;10.60;;;;;;5130845;28;20036;-66
2023/06/11 12:30:07;;;;;;;4.82;3.35;;;29.40;10.60;;;;;;5131071;27;20453;-66
2023/06/11 12:32:33;;;;;;;5.85;3.28;;;29.50;10.30;;;;;;5130741;27;20071;-66
2023/06/11 12:34:59;;;;;;;4.25;3.10;;;29.50;10.30;;;;;;5131354;27;20074;-66
2023/06/11 12:37:25;;;;;;;5.78;3.70;;;29.50;10.50;;;;;;5130847;28;20043;-65
2023/06/11 12:39:51;;;;;;;4.15;2.85;;;29.60;10.90;;;;;;5130956;28;20044;-66
2023/06/11 12:42:19;;;;;;;8.00;3.35;;;29.70;10.60;;;;;;5131596;27;20119;-66
2023/06/11 12:44:46;;;;;;;4.47;3.33;;;29.70;23.60;;;;;;5130146;28;20505;-66
2023/06/11 12:47:13;;;;;;;3.58;2.92;;;29.80;13.50;;;;;;5129744;28;20039;-65
2023/06/11 12:49:38;;;;;;;4.13;3.03;;;30.10;14.30;;;;;;5129583;28;20049;-66
2023/06/11 12:52:06;;;;;;;3.75;3.03;;;30.20;99.90;;;;;;5112860;28;20475;-66
2023/06/11 12:54:31;;;;;;;4.68;3.03;;;29.80;99.90;;;;;;5129711;28;20078;-66
2023/06/11 12:57:00;;;;;;;5.72;3.70;;;29.70;99.90;;;;;;5131554;28;20091;-64
2023/06/11 12:59:26;;;;;;;5.00;3.28;;;29.50;99.90;;;;;;5130990;28;20114;-64
2023/06/11 13:01:52;;;;;;;5.03;3.45;;;29.90;99.90;;;;;;5130401;27;20070;-68
2023/06/11 13:04:17;;;;;;;4.85;3.58;;;29.60;99.90;;;;;;5130653;28;20410;-68
2023/06/11 13:06:45;;;;;;;5.15;3.58;;;29.80;99.90;;;;;;5131829;28;20044;-65
2023/06/11 13:09:11;;;;;;;8.32;3.70;;;29.80;99.90;;;;;;5130672;27;20431;-66
2023/06/11 13:11:37;;;;;;;4.15;2.78;;;29.80;99.90;;;;;;5130863;27;20043;-66
2023/06/11 13:14:04;;;;;;;5.35;3.28;;;30.10;99.90;;;;;;5133296;27;20043;-65
2023/06/11 13:16:30;;;;;;;4.95;3.15;;;30.10;99.90;;;;;;5120495;27;20040;-66
2023/06/11 13:18:59;;;;;;;4.95;3.72;;;29.90;99.90;;;;;;5116949;28;20398;-65
2023/06/11 13:21:26;;;;;;;3.60;2.78;;;;;;;;;;5116855;28;20046;-65
2023/06/11 13:23:52;;;;;;;4.32;3.45;;;;;;;;;;5117019;28;20044;-64
2023/06/11 13:26:18;;;;;;;3.53;3.03;;;;;;;;;;5117197;28;20035;-64
2023/06/11 13:28:44;;;;;;;3.88;2.92;;;30.20;99.90;;;;;;5117293;28;20035;-64
2023/06/11 13:31:10;;;;;;;4.78;3.33;;;30.30;14.20;;;;;;5116366;28;20100;-64
2023/06/11 13:33:36;;;;;;;3.72;3.10;;;30.10;9.70;;;;;;5116674;27;20486;-64
2023/06/11 13:36:02;;;;;;;4.97;3.47;;;30.30;10.10;;;;;;5116542;28;20114;-64
2023/06/11 13:38:28;;;;;;;4.05;3.03;;;30.30;19.80;;;;;;5116169;28;20119;-64
2023/06/11 13:40:54;;;;;;;4.75;3.28;;;30.20;8.70;;;;;;5114791;28;20473;-63
2023/06/11 13:43:20;;;;;;;4.32;3.08;;;30.10;8.00;;;;;;5116362;27;20035;-64
2023/06/11 13:45:46;;;;;;;6.55;3.35;;;30.40;8.70;;;;;;5117303;28;20046;-64
2023/06/11 13:48:18;;;;;;;3.60;2.63;;;30.20;8.20;;;;;;5115691;28;20522;-63